Time;durP1;ratioP1;P1;durP2;ratioP2;P2;SDS_P1;SDS_P2;PMS_P1;PMS_P2;Temp;Humidity;BMP_temperature;BMP_pressure;BME280_temperature;BME280_humidity;BME280_pressure;Samples;Min_cycle;Max_cycle;Signal;HPM_P1;HPM_P2
2023/12/13 00:01:24;;;;;;;371.65;86.03;;;7.90;99.90;;;;;;5102634;28;20044;-78
2023/12/13 00:03:50;;;;;;;250.70;77.30;;;7.90;99.90;;;;;;5120225;28;20115;-77
2023/12/13 00:06:16;;;;;;;255.55;74.95;;;7.90;99.90;;;;;;5106072;28;20044;-77
2023/12/13 00:08:42;;;;;;;156.35;74.97;;;8.00;99.90;;;;;;5121910;28;20048;-77
2023/12/13 00:11:08;;;;;;;114.70;71.78;;;7.90;99.90;;;;;;5124451;28;20031;-78
2023/12/13 00:13:34;;;;;;;69.82;65.43;;;7.90;99.90;;;;;;5105075;28;20100;-78
2023/12/13 00:16:03;;;;;;;78.25;73.10;;;7.80;99.90;;;;;;5121922;28;20089;-78
2023/12/13 00:18:30;;;;;;;76.00;71.63;;;7.80;99.90;;;;;;5121339;28;20051;-78
2023/12/13 00:20:55;;;;;;;79.15;74.22;;;7.80;99.90;;;;;;5122989;28;20068;-79
2023/12/13 00:23:22;;;;;;;79.60;74.45;;;7.90;99.90;;;;;;5122532;28;20044;-79
2023/12/13 00:25:48;;;;;;;81.15;76.10;;;7.90;99.90;;;;;;5122937;28;20036;-79
2023/12/13 00:28:14;;;;;;;86.15;80.93;;;7.90;99.90;;;;;;5121697;28;20051;-79
2023/12/13 00:30:39;;;;;;;86.28;81.18;;;7.90;99.90;;;;;;5100829;28;20530;-78
2023/12/13 00:33:05;;;;;;;85.53;80.85;;;7.90;99.90;;;;;;5118876;28;20103;-79
2023/12/13 00:35:31;;;;;;;87.97;82.95;;;7.90;99.90;;;;;;5122767;28;20095;-78
2023/12/13 00:37:57;;;;;;;87.55;82.53;;;7.80;99.90;;;;;;5120246;28;20035;-78
2023/12/13 00:40:24;;;;;;;89.72;84.82;;;7.80;99.90;;;;;;5121971;28;20042;-78
2023/12/13 00:42:50;;;;;;;86.93;81.82;;;7.90;99.90;;;;;;5120600;28;20050;-79
2023/12/13 00:45:16;;;;;;;90.53;85.03;;;7.80;99.90;;;;;;5104644;28;20040;-79
2023/12/13 00:47:42;;;;;;;94.22;89.13;;;7.90;99.90;;;;;;5121820;28;20044;-79
2023/12/13 00:50:09;;;;;;;90.78;86.05;;;7.90;99.90;;;;;;5121215;28;20054;-79
2023/12/13 00:52:35;;;;;;;90.80;85.85;;;7.90;99.90;;;;;;5121914;28;20035;-79
2023/12/13 00:55:01;;;;;;;91.35;86.55;;;7.90;99.90;;;;;;5120485;28;20043;-79
2023/12/13 00:57:27;;;;;;;90.68;85.60;;;7.80;99.90;;;;;;5122156;28;20053;-79
2023/12/13 00:59:53;;;;;;;90.35;85.53;;;7.80;99.90;;;;;;5120554;28;20080;-79
2023/12/13 01:02:19;;;;;;;88.18;83.35;;;7.80;99.90;;;;;;5123133;28;20040;-79
2023/12/13 01:04:45;;;;;;;87.35;82.65;;;7.80;99.90;;;;;;5120883;28;20580;-79
2023/12/13 01:07:11;;;;;;;85.75;81.07;;;7.70;99.90;;;;;;5120621;28;20051;-78
2023/12/13 01:09:39;;;;;;;88.07;83.18;;;7.60;99.90;;;;;;5113574;28;20043;-78
2023/12/13 01:12:06;;;;;;;82.50;77.93;;;7.60;99.90;;;;;;5120209;28;20445;-77
2023/12/13 01:14:32;;;;;;;78.57;74.63;;;7.60;99.90;;;;;;5121518;28;20052;-77
2023/12/13 01:16:59;;;;;;;78.07;73.95;;;7.60;99.90;;;;;;5119841;28;20472;-78
2023/12/13 01:19:24;;;;;;;78.45;74.53;;;7.50;99.90;;;;;;5121833;28;20051;-78
2023/12/13 01:21:50;;;;;;;80.85;76.80;;;7.70;99.90;;;;;;5121324;28;20039;-77
2023/12/13 01:24:16;;;;;;;83.90;79.50;;;7.40;99.90;;;;;;5121375;28;20047;-78
2023/12/13 01:26:42;;;;;;;82.88;78.72;;;7.40;99.90;;;;;;5120951;28;20043;-78
2023/12/13 01:29:08;;;;;;;84.68;80.38;;;7.40;99.90;;;;;;5121507;28;20040;-77
2023/12/13 01:31:35;;;;;;;83.82;79.40;;;7.40;99.90;;;;;;5121027;28;20035;-78
2023/12/13 01:34:02;;;;;;;82.53;78.28;;;7.40;99.90;;;;;;5118773;28;20050;-77
2023/12/13 01:36:28;;;;;;;82.88;78.50;;;7.40;99.90;;;;;;5119653;28;20612;-77
2023/12/13 01:38:53;;;;;;;86.50;82.22;;;7.40;99.90;;;;;;5118718;28;20047;-77
2023/12/13 01:41:19;;;;;;;80.45;76.53;;;7.40;99.90;;;;;;5119969;28;20051;-77
2023/12/13 01:43:45;;;;;;;85.60;80.93;;;7.50;99.90;;;;;;5121627;28;20586;-77
2023/12/13 01:46:13;;;;;;;86.72;82.40;;;7.50;99.90;;;;;;5119277;28;20043;-77
2023/12/13 01:48:39;;;;;;;86.80;82.30;;;7.50;99.90;;;;;;5120958;28;20103;-77
2023/12/13 01:51:06;;;;;;;82.57;78.47;;;7.50;99.90;;;;;;5120139;28;20050;-77
2023/12/13 01:53:34;;;;;;;82.00;77.43;;;7.40;99.90;;;;;;5121616;28;20046;-78
2023/12/13 01:56:01;;;;;;;80.50;76.57;;;7.50;99.90;;;;;;5102987;28;20073;-78
2023/12/13 01:58:27;;;;;;;81.78;77.43;;;7.40;99.90;;;;;;5115994;28;20115;-79
2023/12/13 02:00:55;;;;;;;80.40;76.38;;;7.50;99.90;;;;;;5104125;28;20035;-79
2023/12/13 02:03:23;;;;;;;75.13;71.50;;;7.50;99.90;;;;;;5119111;28;20067;-78
2023/12/13 02:05:52;;;;;;;79.65;75.85;;;7.50;99.90;;;;;;5122368;28;20039;-78
2023/12/13 02:08:18;;;;;;;76.72;73.05;;;7.50;99.90;;;;;;5119385;28;20058;-78
2023/12/13 02:10:45;;;;;;;73.43;69.85;;;7.50;99.90;;;;;;5121882;28;20099;-78
2023/12/13 02:13:13;;;;;;;73.68;70.05;;;7.50;99.90;;;;;;5119631;28;20047;-78
2023/12/13 02:15:39;;;;;;;76.00;72.45;;;7.50;99.90;;;;;;5119453;28;20115;-78
2023/12/13 02:18:06;;;;;;;73.82;70.03;;;7.50;99.90;;;;;;5111311;28;20055;-78
2023/12/13 02:20:32;;;;;;;72.97;69.45;;;7.40;99.90;;;;;;5119563;28;20043;-78
2023/12/13 02:22:58;;;;;;;73.18;69.47;;;7.40;99.90;;;;;;5120477;28;20099;-77
2023/12/13 02:25:44;;;;;;;73.35;69.85;;;7.40;99.90;;;;;;5101735;28;20046;-78
2023/12/13 02:28:10;;;;;;;75.75;72.03;;;7.40;99.90;;;;;;5103429;28;20583;-78
2023/12/13 02:30:36;;;;;;;73.28;69.65;;;7.40;99.90;;;;;;5120411;28;20039;-77
2023/12/13 02:33:02;;;;;;;74.47;70.72;;;7.40;99.90;;;;;;5119061;28;20084;-77
2023/12/13 02:35:27;;;;;;;75.80;72.40;;;7.40;99.90;;;;;;5119847;28;20048;-77
2023/12/13 02:37:54;;;;;;;73.90;70.47;;;7.40;99.90;;;;;;5118764;28;20043;-79
2023/12/13 02:40:21;;;;;;;69.40;66.00;;;7.40;99.90;;;;;;5120318;28;20070;-78
2023/12/13 02:42:47;;;;;;;72.00;68.70;;;7.40;99.90;;;;;;5120614;27;20134;-78
2023/12/13 02:45:14;;;;;;;71.47;68.15;;;7.30;99.90;;;;;;5119698;28;20046;-78
2023/12/13 02:47:43;;;;;;;75.07;71.57;;;7.30;99.90;;;;;;5119731;28;20044;-78
2023/12/13 02:50:12;;;;;;;73.05;69.85;;;7.40;99.90;;;;;;5120151;28;20047;-78
2023/12/13 02:52:39;;;;;;;72.40;68.97;;;7.40;99.90;;;;;;5121302;28;20039;-78
2023/12/13 02:55:06;;;;;;;73.53;70.13;;;7.30;99.90;;;;;;5119138;28;20043;-77
2023/12/13 02:57:32;;;;;;;75.88;72.50;;;7.40;99.90;;;;;;5119817;28;20078;-77
2023/12/13 02:59:58;;;;;;;73.30;69.97;;;7.40;99.90;;;;;;5118913;28;20040;-77
2023/12/13 03:02:25;;;;;;;74.13;70.80;;;7.40;99.90;;;;;;5119348;28;20062;-77
2023/12/13 03:04:51;;;;;;;78.55;74.72;;;7.40;99.90;;;;;;5118921;28;20064;-77
2023/12/13 03:07:16;;;;;;;70.70;67.50;;;7.40;99.90;;;;;;5119288;28;20048;-77
2023/12/13 03:09:42;;;;;;;74.03;70.18;;;7.40;99.90;;;;;;5120152;28;20083;-76
2023/12/13 03:12:08;;;;;;;71.03;67.45;;;7.40;99.90;;;;;;5120127;28;20039;-76
2023/12/13 03:14:33;;;;;;;71.90;68.45;;;7.40;99.90;;;;;;5120830;28;20055;-76
2023/12/13 03:16:59;;;;;;;71.55;68.30;;;7.40;99.90;;;;;;5119173;28;20539;-76
2023/12/13 03:19:25;;;;;;;74.07;70.68;;;7.40;99.90;;;;;;5119793;28;20082;-76
2023/12/13 03:21:50;;;;;;;69.97;66.70;;;7.40;99.90;;;;;;5120092;28;20109;-77
2023/12/13 03:24:16;;;;;;;71.38;67.85;;;7.40;99.90;;;;;;5120431;28;20240;-77
2023/12/13 03:26:41;;;;;;;75.00;71.50;;;7.40;99.90;;;;;;5121504;28;20044;-77
2023/12/13 03:29:07;;;;;;;76.40;72.53;;;7.40;99.90;;;;;;5118037;28;20043;-77
2023/12/13 03:31:33;;;;;;;69.95;66.65;;;7.40;99.90;;;;;;5101617;28;20059;-77
2023/12/13 03:34:00;;;;;;;72.28;69.03;;;7.40;99.90;;;;;;5116990;28;20120;-77
2023/12/13 03:36:27;;;;;;;74.72;71.38;;;7.50;99.90;;;;;;5119804;28;20095;-77
2023/12/13 03:38:53;;;;;;;75.28;71.80;;;7.40;99.90;;;;;;5121774;28;20043;-77
2023/12/13 03:41:19;;;;;;;76.63;72.95;;;7.40;99.90;;;;;;5122341;28;20040;-77
2023/12/13 03:43:45;;;;;;;75.55;72.28;;;7.50;99.90;;;;;;5106310;28;20063;-77
2023/12/13 03:46:10;;;;;;;76.13;72.60;;;7.50;99.90;;;;;;5105142;28;20043;-76
2023/12/13 03:48:36;;;;;;;74.00;70.60;;;7.50;99.90;;;;;;5123755;28;20080;-77
2023/12/13 03:51:02;;;;;;;74.43;70.97;;;7.50;99.90;;;;;;5105408;28;20028;-78
2023/12/13 03:53:28;;;;;;;78.50;74.90;;;7.50;99.90;;;;;;5125128;28;20051;-77
2023/12/13 03:55:54;;;;;;;75.32;71.93;;;7.50;99.90;;;;;;5122594;28;20407;-79
2023/12/13 03:58:19;;;;;;;74.95;71.20;;;7.50;99.90;;;;;;5123112;28;20039;-80
2023/12/13 04:00:45;;;;;;;75.97;72.53;;;7.60;99.90;;;;;;5123487;28;20043;-77
2023/12/13 04:03:11;;;;;;;71.40;67.93;;;7.60;99.90;;;;;;5123803;28;20035;-77
2023/12/13 04:05:37;;;;;;;75.32;71.80;;;7.60;99.90;;;;;;5124979;28;20104;-77
2023/12/13 04:08:03;;;;;;;72.60;69.38;;;7.60;99.90;;;;;;5122121;28;20067;-77
2023/12/13 04:10:28;;;;;;;75.22;71.65;;;7.60;99.90;;;;;;5124305;28;20044;-76
2023/12/13 04:12:54;;;;;;;66.60;63.30;;;7.60;99.90;;;;;;5088063;28;20054;-76
2023/12/13 04:15:20;;;;;;;70.53;67.25;;;7.60;99.90;;;;;;5123930;28;20055;-76
2023/12/13 04:17:46;;;;;;;72.95;68.97;;;7.50;99.90;;;;;;5122113;28;20517;-76
2023/12/13 04:20:12;;;;;;;74.07;70.82;;;7.50;99.90;;;;;;5121812;28;20107;-77
2023/12/13 04:22:37;;;;;;;75.75;72.07;;;7.60;99.90;;;;;;5124613;28;20498;-77
2023/12/13 04:25:04;;;;;;;72.22;68.80;;;7.60;99.90;;;;;;5120996;28;20040;-77
2023/12/13 04:27:29;;;;;;;75.35;71.53;;;7.60;99.90;;;;;;5121565;28;20046;-77
2023/12/13 04:29:55;;;;;;;74.97;71.35;;;7.60;99.90;;;;;;5102976;28;20099;-77
2023/12/13 04:32:21;;;;;;;75.68;72.07;;;7.60;99.90;;;;;;5122309;28;20040;-77
2023/12/13 04:34:46;;;;;;;73.15;69.65;;;7.50;99.90;;;;;;5121837;28;20135;-77
2023/12/13 04:37:12;;;;;;;72.28;68.97;;;7.60;99.90;;;;;;5122024;28;20042;-77
2023/12/13 04:39:38;;;;;;;73.10;69.68;;;7.60;99.90;;;;;;5122753;28;20035;-77
2023/12/13 04:42:04;;;;;;;76.70;72.72;;;7.60;99.90;;;;;;5121583;28;20054;-78
2023/12/13 04:44:30;;;;;;;75.05;71.32;;;7.60;99.90;;;;;;5122737;28;20035;-78
2023/12/13 04:46:59;;;;;;;72.28;68.97;;;7.60;99.90;;;;;;5122452;28;20071;-80
2023/12/13 04:49:25;;;;;;;72.78;69.47;;;7.60;99.90;;;;;;5121619;28;20105;-77
2023/12/13 04:51:50;;;;;;;71.35;67.80;;;7.60;99.90;;;;;;5121902;28;20051;-77
2023/12/13 04:54:16;;;;;;;71.00;67.63;;;7.60;99.90;;;;;;5120706;28;20062;-78
2023/12/13 04:56:43;;;;;;;70.00;66.43;;;7.70;99.90;;;;;;5122098;28;20110;-77
2023/12/13 04:59:08;;;;;;;72.13;68.72;;;7.60;99.90;;;;;;5122604;28;20043;-77
2023/12/13 05:01:34;;;;;;;74.25;70.65;;;7.60;99.90;;;;;;5121977;28;20051;-77
2023/12/13 05:04:00;;;;;;;74.18;70.28;;;7.60;99.90;;;;;;5121067;28;20074;-78
2023/12/13 05:06:25;;;;;;;72.68;69.38;;;7.60;99.90;;;;;;5121937;28;20074;-78
2023/12/13 05:08:51;;;;;;;70.57;67.20;;;7.60;99.90;;;;;;5122322;28;20044;-78
2023/12/13 05:11:17;;;;;;;72.80;69.50;;;7.60;99.90;;;;;;5121317;28;20050;-78
2023/12/13 05:13:42;;;;;;;74.88;71.18;;;7.60;99.90;;;;;;5123035;27;20044;-78
2023/12/13 05:16:09;;;;;;;72.70;69.03;;;7.60;99.90;;;;;;5103361;28;20069;-78
2023/12/13 05:18:34;;;;;;;72.30;68.70;;;7.50;99.90;;;;;;5122057;28;20035;-78
2023/12/13 05:21:01;;;;;;;70.95;67.40;;;7.60;99.90;;;;;;5122191;27;20044;-78
2023/12/13 05:23:27;;;;;;;71.53;68.10;;;7.60;99.90;;;;;;5101609;28;20054;-78
2023/12/13 05:25:54;;;;;;;72.30;68.95;;;7.60;99.90;;;;;;5115750;28;20039;-78
2023/12/13 05:28:19;;;;;;;74.43;70.82;;;7.60;99.90;;;;;;5122757;28;20040;-78
2023/12/13 05:30:45;;;;;;;73.82;70.03;;;7.70;99.90;;;;;;5121073;28;20047;-78
2023/12/13 05:33:12;;;;;;;70.22;66.70;;;7.50;99.90;;;;;;5121573;28;20040;-78
2023/12/13 05:35:38;;;;;;;73.35;69.72;;;7.60;99.90;;;;;;5121326;28;20096;-78
2023/12/13 05:38:03;;;;;;;75.35;71.60;;;7.60;99.90;;;;;;5121392;28;20073;-78
2023/12/13 05:40:31;;;;;;;76.03;72.22;;;7.50;99.90;;;;;;5122813;28;20050;-78
2023/12/13 05:42:57;;;;;;;76.40;72.75;;;7.50;99.90;;;;;;5120399;28;20051;-78
2023/12/13 05:45:23;;;;;;;73.20;69.90;;;7.60;99.90;;;;;;5120465;28;20539;-78
2023/12/13 05:47:49;;;;;;;73.63;70.00;;;7.60;99.90;;;;;;5121292;28;20042;-78
2023/12/13 05:50:16;;;;;;;77.25;73.78;;;7.60;99.90;;;;;;5120146;28;20044;-78
2023/12/13 05:52:42;;;;;;;72.47;69.05;;;7.60;99.90;;;;;;5120609;28;20095;-78
2023/12/13 05:55:08;;;;;;;69.90;66.30;;;7.60;99.90;;;;;;5119372;28;20031;-78
2023/12/13 05:57:34;;;;;;;72.20;68.50;;;7.60;99.90;;;;;;5121435;28;20050;-78
2023/12/13 06:00:00;;;;;;;69.32;65.85;;;7.70;99.90;;;;;;5119840;28;20087;-78
2023/12/13 06:02:25;;;;;;;70.32;66.72;;;7.70;99.90;;;;;;5121391;28;20079;-78
2023/12/13 06:04:54;;;;;;;76.13;72.18;;;7.70;99.90;;;;;;5120834;28;20085;-78
2023/12/13 06:07:20;;;;;;;72.93;69.32;;;7.70;99.90;;;;;;5120950;28;20048;-78
2023/12/13 06:09:46;;;;;;;69.70;66.15;;;7.70;99.90;;;;;;5121288;28;20040;-78
2023/12/13 06:12:13;;;;;;;70.63;66.53;;;7.70;99.90;;;;;;5118716;28;20123;-76
2023/12/13 06:14:39;;;;;;;71.40;67.78;;;7.70;99.90;;;;;;5119804;28;20047;-78
2023/12/13 06:17:04;;;;;;;69.47;65.68;;;7.70;99.90;;;;;;5120707;28;20068;-77
2023/12/13 06:19:32;;;;;;;68.25;64.65;;;7.70;99.90;;;;;;5120660;28;20471;-77
2023/12/13 06:21:58;;;;;;;67.15;63.80;;;7.70;99.90;;;;;;5119975;28;20480;-77
2023/12/13 06:24:24;;;;;;;68.70;65.03;;;7.60;99.90;;;;;;5119427;28;20099;-78
2023/12/13 06:26:50;;;;;;;68.53;65.05;;;7.70;99.90;;;;;;5121190;28;20054;-78
2023/12/13 06:29:16;;;;;;;69.00;65.30;;;7.70;99.90;;;;;;5118883;28;20047;-78
2023/12/13 06:31:41;;;;;;;70.38;66.60;;;7.70;99.90;;;;;;5120849;28;20407;-78
2023/12/13 06:34:07;;;;;;;70.25;66.72;;;7.70;99.90;;;;;;5119502;28;20039;-78
2023/12/13 06:36:33;;;;;;;73.88;69.68;;;7.70;99.90;;;;;;5120414;28;20043;-79
2023/12/13 06:39:03;;;;;;;72.97;69.18;;;7.70;99.90;;;;;;5102700;28;20044;-79
2023/12/13 06:41:30;;;;;;;70.20;66.57;;;7.70;99.90;;;;;;5113758;28;20085;-79
2023/12/13 06:43:56;;;;;;;71.85;68.15;;;7.70;99.90;;;;;;5102986;28;20044;-79
2023/12/13 06:46:23;;;;;;;73.18;69.43;;;7.70;99.90;;;;;;5118459;28;20059;-79
2023/12/13 06:48:49;;;;;;;72.95;69.25;;;7.70;99.90;;;;;;5119689;28;20107;-78
2023/12/13 06:51:15;;;;;;;73.05;69.65;;;7.80;99.90;;;;;;5101437;28;20040;-79
2023/12/13 06:53:40;;;;;;;70.35;66.45;;;7.80;99.90;;;;;;5120203;28;20111;-78
2023/12/13 06:56:06;;;;;;;70.80;67.32;;;7.80;99.90;;;;;;5119123;28;20504;-78
2023/12/13 06:58:34;;;;;;;69.80;66.30;;;7.80;99.90;;;;;;5120562;28;20043;-78
2023/12/13 07:01:01;;;;;;;70.32;66.82;;;7.80;99.90;;;;;;5120087;28;20043;-78
2023/12/13 07:03:26;;;;;;;72.35;68.60;;;7.80;99.90;;;;;;5120424;28;20570;-78
2023/12/13 07:05:53;;;;;;;74.47;70.50;;;7.80;99.90;;;;;;5121766;28;20046;-78
2023/12/13 07:08:18;;;;;;;72.07;68.43;;;7.80;99.90;;;;;;5118804;28;20086;-77
2023/12/13 07:10:44;;;;;;;72.28;68.43;;;7.80;99.90;;;;;;5121112;28;20062;-78
2023/12/13 07:13:10;;;;;;;74.82;70.78;;;7.80;99.90;;;;;;5118666;28;20056;-78
2023/12/13 07:15:37;;;;;;;78.13;74.32;;;7.80;99.90;;;;;;5118385;28;20048;-78
2023/12/13 07:18:02;;;;;;;73.20;69.35;;;7.80;99.90;;;;;;5120107;28;20043;-78
2023/12/13 07:20:30;;;;;;;76.00;71.80;;;7.80;99.90;;;;;;5101908;28;20047;-78
2023/12/13 07:22:59;;;;;;;73.25;69.45;;;7.80;99.90;;;;;;5120867;28;20036;-78
2023/12/13 07:25:25;;;;;;;73.50;70.00;;;7.70;99.90;;;;;;5119716;28;20039;-78
2023/12/13 07:27:51;;;;;;;73.68;69.72;;;7.70;99.90;;;;;;5102223;28;20066;-79
2023/12/13 07:30:16;;;;;;;76.75;73.00;;;7.70;99.90;;;;;;5101860;28;20039;-78
2023/12/13 07:32:44;;;;;;;73.43;69.65;;;7.80;99.90;;;;;;5119134;28;20097;-79
2023/12/13 07:35:10;;;;;;;73.07;69.10;;;7.80;99.90;;;;;;5121091;28;20398;-79
2023/12/13 07:37:36;;;;;;;77.35;73.07;;;7.80;99.90;;;;;;5118041;28;20056;-79
2023/12/13 07:40:06;;;;;;;75.10;71.18;;;7.70;99.90;;;;;;5119837;28;20118;-79
2023/12/13 07:42:33;;;;;;;76.50;72.43;;;7.70;99.90;;;;;;5117377;28;20055;-79
2023/12/13 07:44:59;;;;;;;74.75;70.63;;;7.70;99.90;;;;;;5119544;28;20079;-79
2023/12/13 07:47:24;;;;;;;74.07;69.97;;;7.70;99.90;;;;;;5118855;28;20043;-79
2023/12/13 07:49:50;;;;;;;77.22;72.93;;;7.70;99.90;;;;;;5120159;28;20040;-79
2023/12/13 07:52:16;;;;;;;73.80;69.75;;;7.70;99.90;;;;;;5120055;28;20048;-79
2023/12/13 07:54:42;;;;;;;75.85;72.05;;;7.80;99.90;;;;;;5117988;28;20148;-79
2023/12/13 07:57:08;;;;;;;79.00;74.95;;;7.70;99.90;;;;;;5118947;28;20040;-78
2023/12/13 07:59:34;;;;;;;77.00;73.07;;;7.70;99.90;;;;;;5117671;28;20044;-79
2023/12/13 08:02:00;;;;;;;77.53;73.57;;;7.70;99.90;;;;;;5119834;28;20052;-79
2023/12/13 08:04:25;;;;;;;77.32;73.40;;;7.70;99.90;;;;;;5117942;28;20035;-79
2023/12/13 08:06:52;;;;;;;76.38;72.38;;;7.70;99.90;;;;;;5117986;28;20058;-79
2023/12/13 08:09:19;;;;;;;79.38;75.38;;;7.70;99.90;;;;;;5119294;28;20044;-79
2023/12/13 08:11:48;;;;;;;79.93;75.80;;;7.80;99.90;;;;;;5112231;28;20040;-79
2023/12/13 08:14:14;;;;;;;78.25;74.28;;;7.80;99.90;;;;;;5114731;28;20503;-79
2023/12/13 08:16:41;;;;;;;83.43;79.55;;;7.80;99.90;;;;;;5117713;28;20095;-79
2023/12/13 08:19:07;;;;;;;83.10;78.50;;;7.80;99.90;;;;;;5117649;28;20546;-79
2023/12/13 08:21:32;;;;;;;76.32;72.63;;;7.80;99.90;;;;;;5115530;28;20060;-78
2023/12/13 08:23:58;;;;;;;83.97;79.63;;;7.90;99.90;;;;;;5117885;28;20062;-79
2023/12/13 08:26:27;;;;;;;78.40;74.53;;;7.90;99.90;;;;;;5121702;28;20048;-78
2023/12/13 08:28:52;;;;;;;82.80;78.45;;;7.90;99.90;;;;;;5120128;28;20032;-79
2023/12/13 08:31:18;;;;;;;80.75;76.60;;;7.90;99.90;;;;;;5123256;28;20100;-78
2023/12/13 08:33:44;;;;;;;81.00;77.07;;;7.90;99.90;;;;;;5119826;28;20040;-78
2023/12/13 08:36:13;;;;;;;78.57;74.75;;;8.00;99.90;;;;;;5121808;28;20122;-78
2023/12/13 08:38:40;;;;;;;78.30;74.47;;;7.90;99.90;;;;;;5121051;28;20055;-78
2023/12/13 08:41:07;;;;;;;77.88;73.70;;;8.00;99.90;;;;;;5121054;28;20542;-79
2023/12/13 08:43:33;;;;;;;75.85;71.68;;;8.00;99.90;;;;;;5120364;28;20051;-79
2023/12/13 08:45:58;;;;;;;75.55;71.47;;;8.00;99.90;;;;;;5121101;27;20090;-78
2023/12/13 08:48:25;;;;;;;76.07;71.80;;;8.00;99.90;;;;;;5104329;28;20071;-78
2023/12/13 08:50:51;;;;;;;71.57;67.97;;;8.00;99.90;;;;;;5109188;28;20044;-78
2023/12/13 08:53:17;;;;;;;74.88;70.57;;;8.00;99.90;;;;;;5122765;28;20122;-78
2023/12/13 08:55:43;;;;;;;73.53;69.43;;;8.00;99.90;;;;;;5102847;28;20070;-79
2023/12/13 08:58:09;;;;;;;77.18;72.65;;;8.00;99.90;;;;;;5121337;28;20035;-79
2023/12/13 09:00:34;;;;;;;75.20;71.00;;;8.00;99.90;;;;;;5121297;28;20413;-79
2023/12/13 09:03:01;;;;;;;74.07;70.07;;;8.00;99.90;;;;;;5119237;28;20479;-79
2023/12/13 09:05:27;;;;;;;72.05;68.00;;;8.10;99.90;;;;;;5120598;28;20048;-78
2023/12/13 09:07:53;;;;;;;73.57;69.85;;;8.10;99.90;;;;;;5119471;28;20061;-79
2023/12/13 09:10:20;;;;;;;75.15;70.25;;;8.10;99.90;;;;;;5103216;28;20044;-79
2023/12/13 09:12:46;;;;;;;79.50;75.15;;;8.10;99.90;;;;;;5119488;28;20116;-79
2023/12/13 09:15:12;;;;;;;82.00;77.53;;;8.20;99.90;;;;;;5121038;28;20039;-79
2023/12/13 09:17:39;;;;;;;82.15;77.80;;;8.30;99.90;;;;;;5115581;28;20050;-79
2023/12/13 09:20:09;;;;;;;76.75;72.75;;;8.30;99.90;;;;;;5114153;28;21263;-79
2023/12/13 09:22:35;;;;;;;77.50;73.78;;;8.30;99.90;;;;;;5119664;28;20494;-79
2023/12/13 09:25:00;;;;;;;75.88;71.38;;;8.30;99.90;;;;;;5119756;28;20050;-79
2023/12/13 09:27:26;;;;;;;78.25;74.13;;;8.30;99.90;;;;;;5117250;28;20036;-80
2023/12/13 09:29:52;;;;;;;71.30;67.50;;;8.30;99.90;;;;;;5119067;28;20118;-79
2023/12/13 09:32:18;;;;;;;66.97;63.30;;;8.40;99.90;;;;;;5118384;28;20048;-81
2023/12/13 09:34:44;;;;;;;71.88;68.07;;;8.40;99.90;;;;;;5116433;28;20040;-80
2023/12/13 09:37:09;;;;;;;71.63;68.03;;;8.40;99.90;;;;;;5101579;28;20074;-80
2023/12/13 09:39:38;;;;;;;74.30;70.40;;;8.50;99.90;;;;;;5117447;28;20078;-80
2023/12/13 09:42:04;;;;;;;73.72;69.63;;;8.40;99.90;;;;;;5116619;28;20047;-80
2023/12/13 09:44:32;;;;;;;71.78;68.05;;;8.40;99.90;;;;;;5095608;28;20051;-79
2023/12/13 09:47:00;;;;;;;68.32;64.88;;;8.50;99.90;;;;;;5099400;28;20043;-80
2023/12/13 09:49:28;;;;;;;71.97;68.00;;;8.50;99.90;;;;;;5118561;28;20079;-79
2023/12/13 09:51:56;;;;;;;69.90;66.40;;;8.50;99.90;;;;;;5119487;28;20047;-80
2023/12/13 09:54:22;;;;;;;68.20;64.80;;;8.50;99.90;;;;;;5119721;28;20046;-79
2023/12/13 09:56:47;;;;;;;66.65;62.97;;;8.50;99.90;;;;;;5121463;28;20075;-79
2023/12/13 09:59:13;;;;;;;63.13;60.05;;;8.50;99.90;;;;;;5118964;28;20507;-79
2023/12/13 10:01:39;;;;;;;70.38;66.72;;;8.50;99.90;;;;;;5120350;28;20050;-79
2023/12/13 10:04:05;;;;;;;69.78;66.35;;;8.50;99.90;;;;;;5119318;28;20035;-80
2023/12/13 10:06:32;;;;;;;71.40;68.03;;;8.50;99.90;;;;;;5121044;28;20909;-79
2023/12/13 10:08:57;;;;;;;67.85;64.50;;;8.50;99.90;;;;;;5119718;28;20047;-80
2023/12/13 10:11:24;;;;;;;66.93;63.50;;;8.50;99.90;;;;;;5121033;28;20044;-80
2023/12/13 10:13:50;;;;;;;62.80;59.35;;;8.50;99.90;;;;;;5120461;28;20077;-79
2023/12/13 10:16:16;;;;;;;63.70;60.30;;;8.50;99.90;;;;;;5119555;28;20051;-79
2023/12/13 10:18:42;;;;;;;68.20;64.70;;;8.50;99.90;;;;;;5119297;28;20086;-79
2023/12/13 10:21:09;;;;;;;66.03;62.33;;;8.50;99.90;;;;;;5119566;28;20485;-79
2023/12/13 10:23:35;;;;;;;64.68;61.22;;;8.60;99.90;;;;;;5120216;28;20076;-79
2023/12/13 10:26:05;;;;;;;69.80;66.10;;;8.60;99.90;;;;;;5119697;28;20097;-79
2023/12/13 10:28:34;;;;;;;67.57;63.83;;;8.60;99.90;;;;;;5121174;28;20054;-79
2023/12/13 10:31:00;;;;;;;67.55;64.13;;;8.70;99.90;;;;;;5102950;28;20175;-80
2023/12/13 10:33:26;;;;;;;63.33;60.10;;;8.60;99.90;;;;;;5117710;28;20118;-79
2023/12/13 10:35:53;;;;;;;64.90;61.47;;;8.60;99.90;;;;;;5119718;28;20573;-79
2023/12/13 10:38:23;;;;;;;66.97;63.40;;;8.60;99.90;;;;;;5118361;28;20099;-79
2023/12/13 10:40:49;;;;;;;68.60;65.25;;;8.70;99.90;;;;;;5105806;28;20044;-79
2023/12/13 10:43:16;;;;;;;66.22;62.60;;;8.70;99.90;;;;;;5092253;28;20104;-79
2023/12/13 10:45:50;;;;;;;65.82;62.15;;;8.70;99.90;;;;;;5119261;28;20092;-79
2023/12/13 10:48:17;;;;;;;65.53;62.22;;;8.70;99.90;;;;;;5119214;28;20051;-79
2023/12/13 10:50:48;;;;;;;70.13;66.57;;;8.60;99.90;;;;;;5118852;28;20436;-80
2023/12/13 10:53:16;;;;;;;69.93;66.25;;;8.70;99.90;;;;;;5119903;28;20180;-80
2023/12/13 10:55:43;;;;;;;66.90;63.45;;;8.80;99.90;;;;;;5118351;28;20047;-79
2023/12/13 10:58:09;;;;;;;63.92;60.50;;;8.80;99.90;;;;;;5101839;28;20039;-79
2023/12/13 11:00:36;;;;;;;66.80;63.22;;;8.80;99.90;;;;;;5120924;28;20040;-79
2023/12/13 11:03:45;;;;;;;65.68;62.20;;;8.80;99.90;;;;;;5118766;28;20071;-80
2023/12/13 11:06:16;;;;;;;68.30;64.50;;;8.80;99.90;;;;;;5114907;27;20060;-80
2023/12/13 11:08:43;;;;;;;68.43;64.60;;;8.80;99.90;;;;;;5098727;28;20051;-79
2023/12/13 11:11:13;;;;;;;63.28;59.45;;;8.80;99.90;;;;;;5118796;28;20055;-79
2023/12/13 11:14:03;;;;;;;63.13;59.45;;;8.90;99.90;;;;;;5119048;28;20062;-79
2023/12/13 11:16:36;;;;;;;62.00;58.13;;;8.90;99.90;;;;;;5117024;28;20096;-79
2023/12/13 11:19:02;;;;;;;66.43;62.70;;;8.90;99.90;;;;;;5119869;28;20550;-79
2023/12/13 11:21:33;;;;;;;64.47;61.03;;;8.90;99.90;;;;;;5117657;28;20039;-79
2023/12/13 11:24:22;;;;;;;63.53;60.13;;;8.90;99.90;;;;;;5118684;28;20047;-79
2023/12/13 11:26:50;;;;;;;63.70;60.00;;;9.00;99.90;;;;;;5119826;28;20040;-79
2023/12/13 11:29:25;;;;;;;57.58;53.88;;;9.00;99.90;;;;;;5117909;28;20105;-79
2023/12/13 11:32:02;;;;;;;58.25;54.70;;;9.00;99.90;;;;;;5110647;28;20050;-79
2023/12/13 11:34:31;;;;;;;63.03;59.30;;;9.00;99.90;;;;;;5117498;28;20050;-79
2023/12/13 11:36:59;;;;;;;66.32;62.60;;;9.00;99.90;;;;;;5118605;28;20077;-80
2023/12/13 11:39:25;;;;;;;63.53;60.00;;;9.00;99.90;;;;;;5118871;28;20047;-79
2023/12/13 11:41:51;;;;;;;65.13;61.55;;;9.00;99.90;;;;;;5118565;28;20039;-80
2023/12/13 11:44:16;;;;;;;66.30;62.40;;;9.10;99.90;;;;;;5120150;28;20089;-79
2023/12/13 11:46:42;;;;;;;63.10;59.42;;;9.10;99.90;;;;;;5114273;28;20039;-79
2023/12/13 11:49:08;;;;;;;61.47;57.17;;;9.20;99.90;;;;;;5118739;28;20075;-79
2023/12/13 11:51:33;;;;;;;63.03;58.95;;;9.20;99.90;;;;;;5117091;28;20108;-79
2023/12/13 11:54:00;;;;;;;64.15;60.55;;;9.20;99.90;;;;;;5117724;28;20054;-80
2023/12/13 11:56:26;;;;;;;59.65;56.17;;;9.20;99.90;;;;;;5120560;28;20499;-79
2023/12/13 11:58:52;;;;;;;54.22;50.67;;;9.20;99.90;;;;;;5118534;28;20073;-80
2023/12/13 12:01:19;;;;;;;50.72;47.30;;;9.20;99.90;;;;;;5121516;28;20047;-80
2023/12/13 12:03:46;;;;;;;48.80;45.53;;;9.20;99.90;;;;;;5120826;28;20092;-80
2023/12/13 12:06:18;;;;;;;48.35;45.25;;;9.30;99.90;;;;;;5123867;28;20034;-80
2023/12/13 12:08:45;;;;;;;49.20;45.60;;;9.30;99.90;;;;;;5120958;28;20051;-80
2023/12/13 12:11:13;;;;;;;47.15;43.92;;;9.30;99.90;;;;;;5120822;28;20046;-79
2023/12/13 12:13:41;;;;;;;46.47;43.40;;;9.30;99.90;;;;;;5105683;28;20056;-79
2023/12/13 12:16:08;;;;;;;47.58;44.53;;;9.30;99.90;;;;;;5111612;28;20059;-79
2023/12/13 12:18:35;;;;;;;44.10;41.25;;;9.30;99.90;;;;;;5119094;28;20039;-82
2023/12/13 12:21:01;;;;;;;44.60;41.33;;;9.30;99.90;;;;;;5118249;28;20072;-80
2023/12/13 12:23:30;;;;;;;45.78;42.45;;;9.30;99.90;;;;;;5121188;28;20070;-80
2023/12/13 12:25:56;;;;;;;45.38;42.70;;;9.30;99.90;;;;;;5120316;28;20486;-79
2023/12/13 12:28:22;;;;;;;46.60;43.67;;;9.30;99.90;;;;;;5117827;28;20047;-80
2023/12/13 12:30:48;;;;;;;46.53;43.42;;;9.30;99.90;;;;;;5118903;28;20040;-80
2023/12/13 12:33:14;;;;;;;46.55;43.60;;;9.40;99.90;;;;;;5102951;28;20623;-79